Flight Track Log - Related Links

Times and Time Zones

All times are in EDT time to prevent confusion due to time zone crossing. See the SWA542 flight status page for this flight to view local times or setup timezone preferences in your user account.

Time Position Orientation Groundspeed Altitude Reporting Facility
EDT Latitude Longitude Course Direction KTS MPH feet Rate Location/Type
Sun 06:24:48 PM 36.0758 -115.1764 269° West 154 177 3,500  Level Los Angeles Center
Sun 06:25:19 PM 36.0753 -115.2136 269° West 197 227 4,400 2,067 Climbing Los Angeles Center
Sun 06:26:18 PM 36.0483 -115.2661 238° Southwest 241 277 6,600 1,636 Climbing Los Angeles Center
Sun 06:27:20 PM 35.9767 -115.2992 200° South 267 307 7,700 2,081 Climbing Los Angeles Center
Sun 06:28:22 PM 35.9211 -115.3628 223° Southwest 269 310 10,900 1,597 Climbing Los Angeles Center
Sun 06:29:24 PM 35.8878 -115.4664 248° West 281 323 11,000 48 Climbing Los Angeles Center
Sun 06:30:27 PM 35.8886 -115.5664 271° West 282 325 11,000 336 Level Los Angeles Center
Sun 06:31:29 PM 35.8906 -115.6706 271° West 307 353 11,700 2,468 Climbing Los Angeles Center
Sun 06:32:31 PM 35.8928 -115.7978 271° West 338 389 16,100 3,339 Climbing Los Angeles Center
Sun 06:33:33 PM 35.8947 -115.9178 271° West 353 406 18,600 2,323 Climbing Los Angeles Center
Sun 06:34:35 PM 35.9494 -116.0319 301° West 368 423 20,900 2,029 Climbing Los Angeles Center
Sun 06:35:49 PM 36.0317 -116.1256 317° Northwest 400 460 23,200 2,234 Climbing Los Angeles Center
Sun 06:36:52 PM 36.1358 -116.2467 317° Northwest 408 470 26,000 2,256 Climbing Los Angeles Center
Sun 06:37:54 PM 36.2225 -116.3458 317° Northwest 420 483 27,900 1,694 Climbing Los Angeles Center
Sun 06:38:56 PM 36.3108 -116.4467 317° Northwest 429 494 29,500 1,742 Climbing Los Angeles Center
Sun 06:39:58 PM 36.4003 -116.5517 317° Northwest 439 505 31,500 1,839 Climbing Los Angeles Center
Sun 06:41:00 PM 36.4869 -116.6550 316° Northwest 436 502 33,300 1,597 Climbing Los Angeles Center
Sun 06:42:02 PM 36.5889 -116.7683 318° Northwest 435 501 34,800 1,355 Climbing Los Angeles Center
Sun 06:43:04 PM 36.6944 -116.8444 330° Northwest 438 504 36,100 1,452 Climbing Los Angeles Center
Sun 06:44:06 PM 36.7975 -116.9236 328° Northwest 434 499 37,800 919 Climbing Los Angeles Center
Sun 06:45:08 PM 36.8983 -117.0014 328° Northwest 426 490 38,000 97 Climbing Los Angeles Center
Sun 06:46:10 PM 37.0208 -117.0931 329° Northwest 426 490 38,000  Level Los Angeles Center
Sun 06:47:11 PM 37.1214 -117.1733 328° Northwest 426 490 38,000  Level Oakland Center
Sun 06:48:12 PM 37.2303 -117.2311 337° Northwest 424 488 38,000  Level Oakland Center
Sun 06:49:14 PM 37.3392 -117.2917 336° Northwest 426 490 38,000  Level Oakland Center
Sun 06:50:15 PM 37.4478 -117.3503 337° Northwest 424 488 38,000  Level Oakland Center
Sun 06:51:17 PM 37.5558 -117.4094 337° Northwest 422 486 38,000  Level Oakland Center
Sun 06:52:18 PM 37.6642 -117.4700 336° Northwest 422 486 38,000  Level Oakland Center
Sun 06:53:20 PM 37.7728 -117.5289 337° Northwest 422 486 38,000  Level Oakland Center
Sun 06:54:21 PM 37.8803 -117.5892 336° Northwest 418 481 38,000  Level Oakland Center
Sun 06:55:22 PM 37.9881 -117.6497 336° Northwest 419 482 38,000  Level Oakland Center
Sun 06:56:24 PM 38.0950 -117.7086 337° Northwest 416 479 38,000  Level Oakland Center
Sun 06:57:25 PM 38.2025 -117.7686 336° Northwest 417 480 38,000  Level Oakland Center
Sun 06:58:27 PM 38.3086 -117.8289 336° Northwest 416 479 38,000  Level Oakland Center
Sun 06:59:28 PM 38.4367 -117.9008 336° Northwest 417 480 38,000  Level Oakland Center
Sun 07:00:29 PM 38.5439 -117.9608 336° Northwest 418 481 38,000  Level Oakland Center
Sun 07:01:31 PM 38.6508 -118.0225 336° Northwest 420 483 38,000  Level Oakland Center
Sun 07:02:32 PM 38.7531 -118.0806 336° Northwest 416 479 38,000  Level Oakland Center
Sun 07:03:34 PM 38.8581 -118.1414 336° Northwest 415 478 38,000  Level Oakland Center
Sun 07:04:35 PM 38.9639 -118.2019 336° Northwest 416 479 38,000  Level Oakland Center
Sun 07:05:36 PM 39.0678 -118.2614 336° Northwest 412 474 38,000  Level Oakland Center
Sun 07:06:38 PM 39.1714 -118.3225 335° Northwest 411 473 38,000  Level Oakland Center
Sun 07:07:39 PM 39.2942 -118.3922 336° Northwest 405 466 38,000  Level Oakland Center
Sun 07:08:41 PM 39.3814 -118.4431 336° Northwest 402 463 38,000  Level Oakland Center
Sun 07:09:42 PM 39.4947 -118.5097 336° Northwest 401 461 38,000  Level Oakland Center
Sun 07:10:44 PM 39.5947 -118.5689 335° Northwest 401 461 38,000  Level Oakland Center
Sun 07:11:45 PM 39.6953 -118.6286 335° Northwest 401 461 38,000  Level Oakland Center
Sun 07:12:46 PM 39.7967 -118.6892 335° Northwest 402 463 38,000  Level Oakland Center
Sun 07:13:48 PM 39.9197 -118.7617 336° Northwest 404 465 38,000  Level Oakland Center
Sun 07:14:49 PM 40.0222 -118.8233 335° Northwest 406 467 38,000  Level Oakland Center
Sun 07:15:50 PM 40.1244 -118.8844 335° Northwest 405 466 38,000  Level Oakland Center
Sun 07:16:52 PM 40.2256 -118.9456 335° Northwest 402 463 38,000  Level Oakland Center
Sun 07:17:53 PM 40.3275 -119.0078 335° Northwest 405 466 38,000  Level Oakland Center
Sun 07:18:55 PM 40.4292 -119.0689 335° Northwest 403 464 38,000  Level Oakland Center
Sun 07:19:56 PM 40.5300 -119.1292 336° Northwest 400 460 38,000  Level Oakland Center
Sun 07:20:57 PM 40.6306 -119.1914 335° Northwest 399 459 38,000  Level Oakland Center
Sun 07:21:59 PM 40.7308 -119.2519 335° Northwest 398 458 38,000  Level Oakland Center
Sun 07:23:00 PM 40.8511 -119.3233 336° Northwest 406 467 38,000  Level Oakland Center
Sun 07:24:02 PM 40.9467 -119.3825 335° Northwest 400 460 38,000  Level Oakland Center
Sun 07:25:03 PM 41.0581 -119.4533 334° Northwest 397 457 38,000  Level Oakland Center
Sun 07:26:05 PM 41.1472 -119.5081 335° Northwest 397 457 38,000  Level Oakland Center
Sun 07:27:06 PM 41.2472 -119.5694 335° Northwest 396 456 38,000  Level Oakland Center
Sun 07:28:07 PM 41.3450 -119.6314 335° Northwest 392 451 38,000  Level Oakland Center
Sun 07:29:09 PM 41.4533 -119.6986 335° Northwest 388 447 38,000  Level Oakland Center
Sun 07:30:10 PM 41.5589 -119.7650 335° Northwest 387 445 38,000  Level Oakland Center
Sun 07:31:12 PM 41.6556 -119.8253 335° Northwest 385 443 38,000  Level Oakland Center
Sun 07:32:13 PM 41.7519 -119.8856 335° Northwest 383 441 38,000  Level Oakland Center
Sun 07:33:14 PM 41.8497 -119.9464 335° Northwest 385 443 38,000  Level Oakland Center
Sun 07:34:16 PM 41.9456 -120.0064 335° Northwest 382 440 38,000  Level Oakland Center
Sun 07:35:06 PM 42.0314 -120.0600 335° Northwest 383 441 38,000  Level Salt Lake Center
Sun 07:35:26 PM 42.0614 -120.0806 333° Northwest 381 438 38,000  Level Seattle Center
Sun 07:36:27 PM 42.1575 -120.1392 336° Northwest 382 440 38,000  Level Seattle Center
Sun 07:37:28 PM 42.2539 -120.2025 334° Northwest 384 442 38,000  Level Seattle Center
Sun 07:38:29 PM 42.3500 -120.2639 335° Northwest 382 440 38,000  Level Seattle Center
Sun 07:39:30 PM 42.4464 -120.3258 335° Northwest 384 442 38,000  Level Seattle Center
Sun 07:40:31 PM 42.5419 -120.3886 334° Northwest 383 441 38,000  Level Seattle Center
Sun 07:41:32 PM 42.6392 -120.4503 335° Northwest 384 442 38,000  Level Seattle Center
Sun 07:42:32 PM 42.7356 -120.5128 335° Northwest 385 443 38,000  Level Seattle Center
Sun 07:43:33 PM 42.8486 -120.5881 334° Northwest 381 438 38,000  Level Seattle Center
Sun 07:44:34 PM 42.9439 -120.6503 334° Northwest 380 437 38,000  Level Seattle Center
Sun 07:45:35 PM 43.0408 -120.7136 334° Northwest 384 442 38,000  Level Seattle Center
Sun 07:46:36 PM 43.1361 -120.7758 335° Northwest 382 440 38,000  Level Seattle Center
Sun 07:47:37 PM 43.2308 -120.8381 334° Northwest 379 436 38,000  Level Seattle Center
Sun 07:48:37 PM 43.3264 -120.9017 334° Northwest 381 438 38,000  Level Seattle Center
Sun 07:49:38 PM 43.4225 -120.9653 334° Northwest 383 441 38,000  Level Seattle Center
Sun 07:50:39 PM 43.5172 -121.0294 334° Northwest 382 440 38,000  Level Seattle Center
Sun 07:51:40 PM 43.6136 -121.0919 335° Northwest 381 438 38,000  Level Seattle Center
Sun 07:52:41 PM 43.7092 -121.1578 334° Northwest 384 442 38,000  Level Seattle Center
Sun 07:53:42 PM 43.8064 -121.2244 334° Northwest 389 448 38,000  Level Seattle Center
Sun 07:54:42 PM 43.9053 -121.2900 334° Northwest 390 449 38,000  Level Seattle Center
Sun 07:55:43 PM 44.0031 -121.3597 333° Northwest 394 453 38,000  Level Seattle Center
Sun 07:56:44 PM 44.1006 -121.4261 334° Northwest 391 450 38,000  Level Seattle Center
Sun 07:57:45 PM 44.1972 -121.4925 334° Northwest 388 447 38,000  Level Seattle Center
Sun 07:58:45 PM 44.2925 -121.5581 334° Northwest 383 441 38,000  Level Seattle Center
Sun 07:59:46 PM 44.4086 -121.6378 334° Northwest 385 443 38,000  Level Seattle Center
Sun 08:00:47 PM 44.5042 -121.7033 334° Northwest 384 442 38,000  Level Seattle Center
Sun 08:01:48 PM 44.6014 -121.7700 334° Northwest 387 445 38,000  Level Seattle Center
Sun 08:02:49 PM 44.6981 -121.8394 333° Northwest 389 448 38,000  Level Seattle Center
Sun 08:03:49 PM 44.7961 -121.9081 334° Northwest 394 453 38,000  Level Seattle Center
Sun 08:04:50 PM 44.8944 -121.9772 334° Northwest 392 451 38,000  Level Seattle Center
Sun 08:05:51 PM 44.9903 -122.0467 333° Northwest 390 449 38,000  Level Seattle Center
Sun 08:06:52 PM 45.0869 -122.1156 333° Northwest 390 449 38,000  Level Seattle Center
Sun 08:07:52 PM 45.1844 -122.1839 334° Northwest 392 451 38,000  Level Seattle Center
Sun 08:08:53 PM 45.2794 -122.2528 333° Northwest 390 449 38,000  Level Seattle Center
Sun 08:09:54 PM 45.3753 -122.3211 333° Northwest 388 447 38,000  Level Seattle Center
Sun 08:10:55 PM 45.4697 -122.3900 333° Northwest 386 444 38,000  Level Seattle Center
Sun 08:11:55 PM 45.5656 -122.4592 333° Northwest 387 445 38,000  Level Seattle Center
Sun 08:12:56 PM 45.6628 -122.5286 333° Northwest 391 450 38,000 -492 Level Seattle Center
Sun 08:13:57 PM 45.7594 -122.5925 335° Northwest 388 447 37,000 -1,082 Descending Seattle Center
Sun 08:14:58 PM 45.8844 -122.6247 350° North 382 440 35,800 -1,426 Descending Seattle Center
Sun 08:15:59 PM 45.9844 -122.6525 349° North 371 427 34,100 -1,686 Descending Seattle Center
Sun 08:16:59 PM 46.0839 -122.6764 351° North 364 419 32,400 -1,686 Descending Seattle Center
Sun 08:18:00 PM 46.1844 -122.7017 350° North 368 423 30,700 -1,574 Descending Seattle Center
Sun 08:19:01 PM 46.2739 -122.7236 350° North 355 409 29,200 -2,380 Descending Seattle Center
Sun 08:20:01 PM 46.3781 -122.7106 North 383 441 25,900 -2,579 Descending Seattle Center
Sun 08:21:02 PM 46.4822 -122.6933 North 381 438 24,000 -1,869 Descending Seattle Center
Sun 08:22:03 PM 46.5806 -122.6797 North 363 418 22,100 -2,038 Descending Seattle Center
Sun 08:22:48 PM 46.6681 -122.6656 North 355 409 20,400 -2,100 Descending Seattle Center
Sun 08:23:03 PM 46.6983 -122.6628 North 359 413 20,000 -982 Descending Seattle Center
Sun 08:23:43 PM 46.7625 -122.6536 North 362 417 19,500 -885 Descending Seattle Center
Sun 08:24:04 PM 46.7978 -122.6472 North 362 417 19,100 -1,390 Descending Seattle Center
Sun 08:25:05 PM 46.8953 -122.6311 North 357 411 17,600 -1,636 Descending Seattle Center
Sun 08:26:05 PM 46.9911 -122.6164 North 349 402 15,800 -1,920 Descending Seattle Center
Sun 08:26:45 PM 47.0594 -122.6069 North 337 388 14,400 -1,770 Descending Seattle Center
Sun 08:27:06 PM 47.0828 -122.6031 North 335 386 14,000 -1,672 Descending Seattle Center
Sun 08:27:46 PM 47.1511 -122.5931 North 330 380 12,700 -1,770 Descending Seattle Center
Sun 08:28:07 PM 47.1722 -122.5892 North 326 375 12,200 -2,400 Descending Seattle Center
Sun 08:28:46 PM 47.2389 -122.5617 16° North 342 394 10,300 -2,100 Descending Seattle Center
Sun 08:29:07 PM 47.2556 -122.5372 45° Northeast 348 400 10,100 -590 Descending Seattle Center
Sun 08:29:47 PM 47.3147 -122.4844 31° Northeast 325 374 9,700 -689 Descending Seattle Center
Sun 08:30:08 PM 47.3319 -122.4864 356° North 302 348 9,400 -1,164 Descending Seattle Center
Sun 08:30:54 PM 47.3997 -122.4772 North 270 311 8,400 -1,082 Descending Seattle Center
Sun 08:31:09 PM 47.4094 -122.4767 North 281 323 8,300 -1,522 Descending Seattle Center
Sun 08:32:01 PM 47.4806 -122.4722 North 243 280 6,700 -1,636 Descending Seattle Center
Sun 08:33:10 PM 47.5594 -122.4617 North 246 283 5,000 -1,500 Descending Seattle Center
Sun 08:33:57 PM 47.5983 -122.4108 41° Northeast 238 274 3,800 -885 Descending Seattle Center
Sun 08:35:12 PM 47.5700 -122.3283 117° Southeast 192 221 3,200 -756 Descending Seattle Center
Sun 08:36:04 PM 47.5308 -122.3100 162° South 172 198 2,200 -1,062 Descending Seattle Center
Sun 08:37:05 PM 47.4914 -122.3122 182° South 136 157 1,200 -831 Descending Seattle Center
Sun 08:38:14 PM 47.4472 -122.3128 180° South 132 152 400 -696 Descending Seattle Center
Sun 08:40:00 PM 47.4499 -122.3118 175° South  Level Estimated

Login

Don't have an account? Register now (free) for customized features, flight alerts, and more!